createdAt,value
2018-03-24T00:00:32.065Z,5.96
2018-03-24T00:01:32.109Z,5.94
2018-03-24T00:02:32.072Z,5.91
2018-03-24T00:03:32.042Z,5.91
2018-03-24T00:04:32.053Z,5.89
2018-03-24T00:05:32.076Z,5.89
2018-03-24T00:06:32.062Z,5.88
2018-03-24T00:07:32.037Z,5.88
2018-03-24T00:08:32.072Z,5.9
2018-03-24T00:09:32.059Z,5.93
2018-03-24T00:10:32.103Z,5.92
2018-03-24T00:11:32.074Z,5.94
2018-03-24T00:12:32.091Z,5.9
2018-03-24T00:13:32.074Z,5.88
2018-03-24T00:14:32.093Z,5.91
2018-03-24T00:15:32.132Z,5.89
2018-03-24T00:16:32.115Z,5.87
2018-03-24T00:17:32.111Z,5.88
2018-03-24T00:18:32.121Z,5.87
2018-03-24T00:19:32.139Z,5.85
2018-03-24T00:20:32.120Z,5.86
2018-03-24T00:21:32.136Z,5.85
2018-03-24T00:22:32.156Z,5.84
2018-03-24T00:23:32.164Z,5.87
2018-03-24T00:24:32.117Z,5.88
2018-03-24T00:25:32.184Z,5.86
2018-03-24T00:26:32.141Z,5.86
2018-03-24T00:27:32.133Z,5.83
2018-03-24T00:28:32.136Z,5.85
2018-03-24T00:29:32.178Z,5.87
2018-03-24T00:30:32.190Z,5.87
2018-03-24T00:31:32.137Z,5.88
2018-03-24T00:32:32.172Z,5.85
2018-03-24T00:33:32.171Z,5.87
2018-03-24T00:34:32.143Z,5.84
2018-03-24T00:35:32.185Z,5.84
2018-03-24T00:36:32.158Z,5.83
2018-03-24T00:37:32.164Z,5.84
2018-03-24T00:38:32.154Z,5.85
2018-03-24T00:39:32.155Z,5.84
2018-03-24T00:40:32.200Z,5.84
2018-03-24T00:41:32.159Z,5.86
2018-03-24T00:42:32.156Z,5.83
2018-03-24T00:43:32.168Z,5.87
2018-03-24T00:44:32.246Z,5.84
2018-03-24T00:45:32.199Z,5.86
2018-03-24T00:46:32.219Z,5.83
2018-03-24T00:47:32.190Z,5.84
2018-03-24T00:48:32.190Z,5.85
2018-03-24T00:49:32.180Z,5.84
2018-03-24T00:50:32.233Z,5.82
2018-03-24T00:51:32.241Z,5.81
2018-03-24T00:52:32.399Z,5.83
2018-03-24T00:53:32.197Z,5.84
2018-03-24T00:54:32.237Z,5.85
2018-03-24T00:55:32.248Z,5.84
2018-03-24T00:56:32.230Z,5.81
2018-03-24T00:57:32.235Z,5.82
2018-03-24T00:58:32.243Z,5.81
2018-03-24T00:59:32.235Z,5.79
2018-03-24T01:00:32.254Z,5.81
2018-03-24T01:01:32.242Z,5.81
2018-03-24T01:02:32.230Z,5.8
2018-03-24T01:03:32.246Z,5.78
2018-03-24T01:04:32.242Z,5.79
2018-03-24T01:05:32.265Z,5.8
2018-03-24T01:06:32.245Z,5.79
2018-03-24T01:07:32.266Z,5.82
2018-03-24T01:08:32.275Z,5.81
2018-03-24T01:09:32.262Z,5.8
2018-03-24T01:10:32.266Z,5.8
2018-03-24T01:11:32.324Z,5.81
2018-03-24T01:12:32.280Z,5.8
2018-03-24T01:13:32.266Z,5.8
2018-03-24T01:14:32.276Z,5.79
2018-03-24T01:15:32.306Z,5.78
2018-03-24T01:16:32.299Z,5.79
2018-03-24T01:17:32.282Z,5.81
2018-03-24T01:18:32.290Z,5.78
2018-03-24T01:19:32.298Z,5.78
2018-03-24T01:20:32.286Z,5.8
2018-03-24T01:21:32.358Z,5.79
2018-03-24T01:22:32.310Z,5.78
2018-03-24T01:23:32.318Z,5.78
2018-03-24T01:24:32.293Z,5.75
2018-03-24T01:25:32.312Z,5.78
2018-03-24T01:26:32.530Z,5.75
2018-03-24T01:27:32.299Z,5.77
2018-03-24T01:28:32.307Z,5.76
2018-03-24T01:29:32.309Z,5.78
2018-03-24T01:30:32.316Z,5.76
2018-03-24T01:31:32.325Z,5.73
2018-03-24T01:32:32.320Z,5.74
2018-03-24T01:33:32.326Z,5.77
2018-03-24T01:34:32.333Z,5.79
2018-03-24T01:35:32.327Z,5.79
2018-03-24T01:36:32.348Z,5.79
2018-03-24T01:37:32.349Z,5.81
2018-03-24T01:38:32.368Z,5.78
2018-03-24T01:39:32.343Z,5.8
2018-03-24T01:40:32.365Z,5.79
2018-03-24T01:41:32.338Z,5.81
2018-03-24T01:42:32.514Z,5.8
2018-03-24T01:43:32.371Z,5.82
2018-03-24T01:44:32.354Z,5.83
2018-03-24T01:45:32.336Z,5.85
2018-03-24T01:46:32.338Z,5.82
2018-03-24T01:47:32.398Z,5.8
2018-03-24T01:48:32.344Z,5.82
2018-03-24T01:49:32.348Z,5.81
2018-03-24T01:50:32.392Z,5.82
2018-03-24T01:51:32.341Z,5.8
2018-03-24T01:52:32.356Z,5.79
2018-03-24T01:53:32.386Z,5.79
2018-03-24T01:54:32.373Z,5.8
2018-03-24T01:55:32.351Z,5.8
2018-03-24T01:56:32.368Z,5.8
2018-03-24T01:57:32.389Z,5.79
2018-03-24T01:58:32.396Z,5.8
2018-03-24T01:59:32.371Z,5.8
2018-03-24T02:00:32.374Z,5.8
2018-03-24T02:01:32.390Z,5.78
2018-03-24T02:02:32.412Z,5.77
2018-03-24T02:03:32.375Z,5.78
2018-03-24T02:04:32.395Z,5.77
2018-03-24T02:05:32.381Z,5.81
2018-03-24T02:06:32.374Z,5.76
2018-03-24T02:07:32.671Z,5.78
2018-03-24T02:08:32.407Z,5.79
2018-03-24T02:09:32.430Z,5.76
2018-03-24T02:10:32.419Z,5.78
2018-03-24T02:11:32.443Z,5.8
2018-03-24T02:12:32.452Z,5.77
2018-03-24T02:13:32.419Z,5.76
2018-03-24T02:14:32.478Z,5.78
2018-03-24T02:15:32.447Z,5.76
2018-03-24T02:16:32.431Z,5.74
2018-03-24T02:17:32.428Z,5.75
2018-03-24T02:18:32.438Z,5.76
2018-03-24T02:19:32.425Z,5.74
2018-03-24T02:20:32.414Z,5.73
2018-03-24T02:21:32.443Z,5.73
2018-03-24T02:22:32.496Z,5.74
2018-03-24T02:23:32.420Z,5.71
2018-03-24T02:24:32.448Z,5.73
2018-03-24T02:25:32.474Z,5.74
2018-03-24T02:26:32.440Z,5.73
2018-03-24T02:27:32.487Z,5.71
2018-03-24T02:28:32.464Z,5.7
2018-03-24T02:29:32.477Z,5.71
2018-03-24T02:30:32.542Z,5.71
2018-03-24T02:31:32.484Z,5.7
2018-03-24T02:32:32.493Z,5.7
2018-03-24T02:33:32.483Z,5.68
2018-03-24T02:34:32.470Z,5.69
2018-03-24T02:35:32.521Z,5.7
2018-03-24T02:36:32.536Z,5.67
2018-03-24T02:37:32.479Z,5.66
2018-03-24T02:38:32.490Z,5.67
2018-03-24T02:39:32.528Z,5.68
2018-03-24T02:40:32.822Z,5.67
2018-03-24T02:41:32.504Z,5.66
2018-03-24T02:42:32.494Z,5.69
2018-03-24T02:43:32.545Z,5.66
2018-03-24T02:44:32.500Z,5.66
2018-03-24T02:45:32.500Z,5.66
2018-03-24T02:46:32.560Z,5.69
2018-03-24T02:47:32.525Z,5.66
2018-03-24T02:48:32.514Z,5.64
2018-03-24T02:49:32.506Z,5.63
2018-03-24T02:50:32.528Z,5.62
2018-03-24T02:51:32.594Z,5.63
2018-03-24T02:52:32.519Z,5.63
2018-03-24T02:53:32.560Z,5.64
2018-03-24T02:54:32.522Z,5.64
2018-03-24T02:55:32.715Z,5.63
2018-03-24T02:56:32.550Z,5.66
2018-03-24T02:57:32.543Z,5.66
2018-03-24T02:58:32.544Z,5.61
2018-03-24T02:59:32.540Z,5.63
2018-03-24T03:00:32.590Z,5.62
2018-03-24T03:01:32.889Z,5.63
2018-03-24T03:02:32.555Z,5.62
2018-03-24T03:03:32.590Z,5.62
2018-03-24T03:04:32.574Z,5.61
2018-03-24T03:05:32.580Z,5.62
2018-03-24T03:06:32.881Z,5.62
2018-03-24T03:07:32.556Z,5.62
2018-03-24T03:08:32.560Z,5.6
2018-03-24T03:09:32.555Z,5.61
2018-03-24T03:10:32.640Z,5.61
2018-03-24T03:11:32.602Z,5.61
2018-03-24T03:12:32.568Z,5.61
2018-03-24T03:13:32.573Z,5.6
2018-03-24T03:14:32.573Z,5.61
2018-03-24T03:15:32.656Z,5.58
2018-03-24T03:16:32.629Z,5.6
2018-03-24T03:17:32.601Z,5.58
2018-03-24T03:18:32.606Z,5.59
2018-03-24T03:19:32.600Z,5.6
2018-03-24T03:20:32.593Z,5.57
2018-03-24T03:21:32.650Z,5.59
2018-03-24T03:22:32.624Z,5.58
2018-03-24T03:23:32.617Z,5.59
2018-03-24T03:24:32.623Z,5.58
2018-03-24T03:25:32.632Z,5.57
2018-03-24T03:26:32.634Z,5.56
2018-03-24T03:27:32.657Z,5.58
2018-03-24T03:28:32.627Z,5.57
2018-03-24T03:29:32.631Z,5.57
2018-03-24T03:30:32.649Z,5.57
2018-03-24T03:31:32.658Z,5.55
2018-03-24T03:32:32.664Z,5.55
2018-03-24T03:33:32.648Z,5.55
2018-03-24T03:34:32.659Z,5.57
2018-03-24T03:35:32.697Z,5.55
2018-03-24T03:36:32.653Z,5.55
2018-03-24T03:37:32.672Z,5.53
2018-03-24T03:38:32.652Z,5.52
2018-03-24T03:39:32.691Z,5.54
2018-03-24T03:40:32.665Z,5.52
2018-03-24T03:41:32.667Z,5.54
2018-03-24T03:42:32.676Z,5.53
2018-03-24T03:43:32.664Z,5.53
2018-03-24T03:44:32.681Z,5.52
2018-03-24T03:45:32.686Z,5.51
2018-03-24T03:46:32.697Z,5.51
2018-03-24T03:47:32.680Z,5.51
2018-03-24T03:48:32.683Z,5.5
2018-03-24T03:49:32.760Z,5.51
2018-03-24T03:50:32.726Z,5.53
2018-03-24T03:51:32.724Z,5.54
2018-03-24T03:52:32.689Z,5.53
2018-03-24T03:53:32.749Z,5.5
2018-03-24T03:54:32.693Z,5.49
2018-03-24T03:55:32.686Z,5.49
2018-03-24T03:56:32.731Z,5.48
2018-03-24T03:57:32.696Z,5.51
2018-03-24T03:58:32.712Z,5.49
2018-03-24T03:59:32.740Z,5.5
2018-03-24T04:00:32.809Z,5.48
2018-03-24T04:01:32.732Z,5.51
2018-03-24T04:02:32.748Z,5.48
2018-03-24T04:03:33.641Z,5.49
2018-03-24T04:04:32.766Z,5.47
2018-03-24T04:05:32.716Z,5.47
2018-03-24T04:06:32.777Z,5.49
2018-03-24T04:07:32.832Z,5.48
2018-03-24T04:08:32.734Z,5.47
2018-03-24T04:09:32.741Z,5.46
2018-03-24T04:10:32.750Z,5.47
2018-03-24T04:11:32.774Z,5.47
2018-03-24T04:12:32.765Z,5.49
2018-03-24T04:13:32.741Z,5.46
2018-03-24T04:14:32.764Z,5.49
2018-03-24T04:15:32.750Z,5.48
2018-03-24T04:16:32.769Z,5.49
2018-03-24T04:17:32.803Z,5.47
2018-03-24T04:18:32.783Z,5.48
2018-03-24T04:19:32.790Z,5.46
2018-03-24T04:20:32.786Z,5.46
2018-03-24T04:21:32.783Z,5.44
2018-03-24T04:22:32.828Z,5.43
2018-03-24T04:23:32.798Z,5.44
2018-03-24T04:24:32.808Z,5.46
2018-03-24T04:25:32.817Z,5.45
2018-03-24T04:26:33.145Z,5.44
2018-03-24T04:27:32.815Z,5.43
2018-03-24T04:28:32.886Z,5.43
2018-03-24T04:29:32.803Z,5.45
2018-03-24T04:30:32.800Z,5.43
2018-03-24T04:31:32.840Z,5.45
2018-03-24T04:32:32.817Z,5.42
2018-03-24T04:33:32.815Z,5.43
2018-03-24T04:34:32.821Z,5.45
2018-03-24T04:35:32.830Z,5.43
2018-03-24T04:36:32.818Z,5.43
2018-03-24T04:37:32.807Z,5.43
2018-03-24T04:38:32.847Z,5.42
2018-03-24T04:39:32.829Z,5.42
2018-03-24T04:40:32.826Z,5.43
2018-03-24T04:41:32.828Z,5.43
2018-03-24T04:42:32.860Z,5.43
2018-03-24T04:43:32.832Z,5.42
2018-03-24T04:44:32.837Z,5.39
2018-03-24T04:45:32.869Z,5.41
2018-03-24T04:46:32.862Z,5.41
2018-03-24T04:47:32.841Z,5.4
2018-03-24T04:48:32.853Z,5.41
2018-03-24T04:49:32.872Z,5.4
2018-03-24T04:50:32.868Z,5.4
2018-03-24T04:51:32.873Z,5.42
2018-03-24T04:52:32.868Z,5.41
2018-03-24T04:53:32.882Z,5.41
2018-03-24T04:54:32.893Z,5.42
2018-03-24T04:55:32.864Z,5.42
2018-03-24T04:56:32.890Z,5.41
2018-03-24T04:57:32.884Z,5.39
2018-03-24T04:58:32.877Z,5.4
2018-03-24T04:59:32.896Z,5.4
2018-03-24T05:00:32.969Z,5.4
2018-03-24T05:01:32.889Z,5.42
2018-03-24T05:02:33.068Z,5.4
2018-03-24T05:03:32.916Z,5.39
2018-03-24T05:04:32.910Z,5.38
2018-03-24T05:05:32.908Z,5.39
2018-03-24T05:06:32.910Z,5.39
2018-03-24T05:07:32.951Z,5.37
2018-03-24T05:08:32.903Z,5.37
2018-03-24T05:09:33.185Z,5.37
2018-03-24T05:10:32.949Z,5.37
2018-03-24T05:11:32.930Z,5.37
2018-03-24T05:12:32.936Z,5.37
2018-03-24T05:13:32.965Z,5.36
2018-03-24T05:14:32.995Z,5.36
2018-03-24T05:15:32.943Z,5.34
2018-03-24T05:16:32.955Z,5.34
2018-03-24T05:17:32.958Z,5.35
2018-03-24T05:18:32.952Z,5.35
2018-03-24T05:19:32.959Z,5.34
2018-03-24T05:20:32.934Z,5.34
2018-03-24T05:21:32.971Z,5.35
2018-03-24T05:22:32.964Z,5.34
2018-03-24T05:23:32.968Z,5.31
2018-03-24T05:24:32.984Z,5.33
2018-03-24T05:25:33.029Z,5.33
2018-03-24T05:26:32.966Z,5.32
2018-03-24T05:27:32.970Z,5.31
2018-03-24T05:28:32.990Z,5.3
2018-03-24T05:29:32.983Z,5.29
2018-03-24T05:30:33.023Z,5.32
2018-03-24T05:31:33.034Z,5.29
2018-03-24T05:32:33.000Z,5.31
2018-03-24T05:33:33.007Z,5.31
2018-03-24T05:34:33.004Z,5.3
2018-03-24T05:35:33.020Z,5.32
2018-03-24T05:36:33.065Z,5.31
2018-03-24T05:37:33.033Z,5.31
2018-03-24T05:38:33.019Z,5.3
2018-03-24T05:39:33.013Z,5.3
2018-03-24T05:40:33.070Z,5.3
2018-03-24T05:41:33.613Z,5.3
2018-03-24T05:42:33.052Z,5.28
2018-03-24T05:43:33.181Z,5.3
2018-03-24T05:44:33.604Z,5.3
2018-03-24T05:45:33.073Z,5.31
2018-03-24T05:46:33.038Z,5.31
2018-03-24T05:47:33.052Z,5.31
2018-03-24T05:48:33.393Z,5.3
2018-03-24T05:49:33.106Z,5.32
2018-03-24T05:50:33.050Z,5.34
2018-03-24T05:51:33.053Z,5.32
2018-03-24T05:52:33.085Z,5.31
2018-03-24T05:53:33.066Z,5.31
2018-03-24T05:54:33.057Z,5.3
2018-03-24T05:55:33.068Z,5.3
2018-03-24T05:56:33.078Z,5.31
2018-03-24T05:57:34.090Z,5.3
2018-03-24T05:58:33.052Z,5.31
2018-03-24T05:59:33.177Z,5.34
2018-03-24T06:00:33.076Z,5.32
2018-03-24T06:01:33.068Z,5.31
2018-03-24T06:02:33.082Z,5.31
2018-03-24T06:03:33.127Z,5.32
2018-03-24T06:04:33.089Z,5.33
2018-03-24T06:05:33.115Z,5.32
2018-03-24T06:06:33.130Z,5.34
2018-03-24T06:07:33.091Z,5.33
2018-03-24T06:08:34.575Z,5.34
2018-03-24T06:09:33.209Z,5.33
2018-03-24T06:10:33.463Z,5.34
2018-03-24T06:11:33.114Z,5.35
2018-03-24T06:12:33.143Z,5.35
2018-03-24T06:13:33.188Z,5.36
2018-03-24T06:14:33.185Z,5.35
2018-03-24T06:15:33.130Z,5.37
2018-03-24T06:16:33.121Z,5.36
2018-03-24T06:17:33.228Z,5.35
2018-03-24T06:18:33.155Z,5.36
2018-03-24T06:19:33.160Z,5.36
2018-03-24T06:20:33.141Z,5.38
2018-03-24T06:21:33.218Z,5.36
2018-03-24T06:22:33.252Z,5.39
2018-03-24T06:23:33.158Z,5.39
2018-03-24T06:24:33.289Z,5.38
2018-03-24T06:25:33.159Z,5.38
2018-03-24T06:26:33.156Z,5.39
2018-03-24T06:27:33.218Z,5.38
2018-03-24T06:28:33.180Z,5.38
2018-03-24T06:29:33.250Z,5.39
2018-03-24T06:30:33.244Z,5.39
2018-03-24T06:31:33.196Z,5.42
2018-03-24T06:32:33.198Z,5.4
2018-03-24T06:33:33.300Z,5.41
2018-03-24T06:34:33.218Z,5.42
2018-03-24T06:35:33.260Z,5.42
2018-03-24T06:36:33.242Z,5.43
2018-03-24T06:37:33.288Z,5.43
2018-03-24T06:38:33.197Z,5.42
2018-03-24T06:39:33.211Z,5.41
2018-03-24T06:40:33.216Z,5.42
2018-03-24T06:41:33.267Z,5.44
2018-03-24T06:42:33.209Z,5.43
2018-03-24T06:43:33.200Z,5.44
2018-03-24T06:44:33.757Z,5.46
2018-03-24T06:45:33.217Z,5.44
2018-03-24T06:46:33.213Z,5.44
2018-03-24T06:47:33.215Z,5.46
2018-03-24T06:48:33.204Z,5.47
2018-03-24T06:49:33.573Z,5.49
2018-03-24T06:50:33.216Z,5.49
2018-03-24T06:51:33.232Z,5.49
2018-03-24T06:52:33.260Z,5.49
2018-03-24T06:53:33.253Z,5.51
2018-03-24T06:54:33.277Z,5.51
2018-03-24T06:55:33.245Z,5.49
2018-03-24T06:56:33.263Z,5.51
2018-03-24T06:57:33.275Z,5.5
2018-03-24T06:58:33.261Z,5.53
2018-03-24T06:59:33.289Z,5.53
2018-03-24T07:00:33.524Z,5.52
2018-03-24T07:01:33.335Z,5.53
2018-03-24T07:02:33.280Z,5.51
2018-03-24T07:03:33.302Z,5.52
2018-03-24T07:04:33.277Z,5.53
2018-03-24T07:05:33.288Z,5.52
2018-03-24T07:06:33.575Z,5.55
2018-03-24T07:07:33.346Z,5.55
2018-03-24T07:08:33.281Z,5.53
2018-03-24T07:09:33.284Z,5.55
2018-03-24T07:10:33.319Z,5.56
2018-03-24T07:11:33.309Z,5.54
2018-03-24T07:12:33.311Z,5.54
2018-03-24T07:13:33.337Z,5.55
2018-03-24T07:14:33.323Z,5.57
2018-03-24T07:15:33.319Z,5.56
2018-03-24T07:16:33.334Z,5.58
2018-03-24T07:17:33.325Z,5.57
2018-03-24T07:18:33.310Z,5.58
2018-03-24T07:19:33.337Z,5.58
2018-03-24T07:20:33.330Z,5.58
2018-03-24T07:21:33.331Z,5.62
2018-03-24T07:22:33.500Z,5.62
2018-03-24T07:23:33.342Z,5.62
2018-03-24T07:24:33.363Z,5.62
2018-03-24T07:25:33.357Z,5.63
2018-03-24T07:26:33.354Z,5.65
2018-03-24T07:27:33.382Z,5.64
2018-03-24T07:28:33.408Z,5.65
2018-03-24T07:29:33.356Z,5.66
2018-03-24T07:30:33.348Z,5.64
2018-03-24T07:31:33.375Z,5.66
2018-03-24T07:32:33.371Z,5.65
2018-03-24T07:33:33.435Z,5.66
2018-03-24T07:34:33.373Z,5.65
2018-03-24T07:35:33.360Z,5.64
2018-03-24T07:36:33.357Z,5.69
2018-03-24T07:37:33.365Z,5.68
2018-03-24T07:38:33.455Z,5.69
2018-03-24T07:39:33.415Z,5.7
2018-03-24T07:40:33.384Z,5.72
2018-03-24T07:41:33.390Z,5.73
2018-03-24T07:42:33.424Z,5.72
2018-03-24T07:43:33.491Z,5.69
2018-03-24T07:44:33.436Z,5.69
2018-03-24T07:45:33.463Z,5.75
2018-03-24T07:46:33.391Z,5.69
2018-03-24T07:47:33.617Z,5.75
2018-03-24T07:48:33.456Z,5.76
2018-03-24T07:49:33.408Z,5.74
2018-03-24T07:50:33.413Z,5.71
2018-03-24T07:51:33.423Z,5.76
2018-03-24T07:52:33.419Z,5.77
2018-03-24T07:53:33.451Z,5.75
2018-03-24T07:54:33.427Z,5.76
2018-03-24T07:55:33.420Z,5.78
2018-03-24T07:56:33.402Z,5.79
2018-03-24T07:57:33.479Z,5.75
2018-03-24T07:58:33.403Z,5.8
2018-03-24T07:59:33.703Z,5.78
2018-03-24T08:00:33.435Z,5.82
2018-03-24T08:01:33.453Z,5.81
2018-03-24T08:02:33.502Z,5.8
2018-03-24T08:03:33.426Z,5.73
2018-03-24T08:04:33.455Z,5.78
2018-03-24T08:05:33.432Z,5.83
2018-03-24T08:06:33.612Z,5.82
2018-03-24T08:07:33.443Z,5.82
2018-03-24T08:08:33.472Z,5.8
2018-03-24T08:09:33.565Z,5.83
2018-03-24T08:10:33.506Z,5.85
2018-03-24T08:11:33.490Z,5.83
2018-03-24T08:12:33.492Z,5.83
2018-03-24T08:13:33.498Z,5.87
2018-03-24T08:14:33.478Z,5.87
2018-03-24T08:15:33.496Z,5.85
2018-03-24T08:16:33.657Z,5.9
2018-03-24T08:17:33.532Z,5.86
2018-03-24T08:18:33.506Z,5.9
2018-03-24T08:19:33.516Z,5.84
2018-03-24T08:20:33.517Z,5.88
2018-03-24T08:21:33.549Z,5.9
2018-03-24T08:22:33.506Z,5.93
2018-03-24T08:23:33.541Z,5.93
2018-03-24T08:24:33.536Z,5.96
2018-03-24T08:25:33.571Z,5.94
2018-03-24T08:26:33.557Z,5.84
2018-03-24T08:27:33.575Z,5.93
2018-03-24T08:28:33.538Z,5.98
2018-03-24T08:29:33.547Z,5.95
2018-03-24T08:30:33.541Z,5.96
2018-03-24T08:31:33.582Z,5.9
2018-03-24T08:32:33.551Z,5.98
2018-03-24T08:33:33.560Z,5.97
2018-03-24T08:34:33.635Z,5.94
2018-03-24T08:35:33.550Z,5.95
2018-03-24T08:36:33.589Z,5.9
2018-03-24T08:37:33.553Z,5.92
2018-03-24T08:38:33.621Z,5.89
2018-03-24T08:39:33.570Z,6
2018-03-24T08:40:33.594Z,5.99
2018-03-24T08:41:33.702Z,5.94
2018-03-24T08:42:33.582Z,5.87
2018-03-24T08:43:33.643Z,5.88
2018-03-24T08:44:33.598Z,5.91
2018-03-24T08:45:33.612Z,5.87
2018-03-24T08:46:33.637Z,5.86
2018-03-24T08:47:33.589Z,5.84
2018-03-24T08:48:33.635Z,5.87
2018-03-24T08:49:33.622Z,5.99
2018-03-24T08:50:33.581Z,5.94
2018-03-24T08:51:33.765Z,6
2018-03-24T08:52:33.613Z,5.96
2018-03-24T08:53:33.606Z,5.96
2018-03-24T08:54:33.605Z,6.02
2018-03-24T08:55:33.608Z,6.04
2018-03-24T08:56:33.636Z,5.96
2018-03-24T08:57:33.608Z,5.93
2018-03-24T08:58:33.633Z,5.94
2018-03-24T08:59:33.635Z,5.97
2018-03-24T09:00:33.611Z,6.03
2018-03-24T09:01:33.653Z,6.02
2018-03-24T09:02:33.682Z,5.98
2018-03-24T09:03:33.660Z,5.96
2018-03-24T09:04:33.634Z,5.98
2018-03-24T09:05:33.647Z,5.97
2018-03-24T09:06:33.664Z,5.97
2018-03-24T09:07:33.646Z,5.96
2018-03-24T09:08:33.683Z,5.9
2018-03-24T09:09:33.668Z,5.93
2018-03-24T09:10:33.652Z,5.88
2018-03-24T09:11:33.677Z,5.97
2018-03-24T09:12:33.717Z,5.92
2018-03-24T09:13:33.692Z,5.94
2018-03-24T09:14:33.677Z,5.93
2018-03-24T09:15:33.665Z,5.87
2018-03-24T09:16:33.694Z,5.99
2018-03-24T09:17:33.751Z,5.89
2018-03-24T09:18:33.860Z,6.01
2018-03-24T09:19:33.707Z,5.97
2018-03-24T09:20:33.722Z,5.9
2018-03-24T09:21:33.715Z,5.98
2018-03-24T09:22:33.715Z,5.98
2018-03-24T09:23:33.781Z,6.04
2018-03-24T09:24:33.710Z,5.97
2018-03-24T09:25:33.718Z,5.96
2018-03-24T09:26:33.790Z,6
2018-03-24T09:27:33.740Z,5.94
2018-03-24T09:28:34.085Z,5.98
2018-03-24T09:29:33.808Z,6.01
2018-03-24T09:30:33.765Z,6.08
2018-03-24T09:31:33.767Z,6.02
2018-03-24T09:32:33.825Z,6.04
2018-03-24T09:33:33.756Z,5.88
2018-03-24T09:34:33.768Z,5.92
2018-03-24T09:35:33.799Z,5.99
2018-03-24T09:36:33.764Z,5.95
2018-03-24T09:37:33.790Z,5.94
2018-03-24T09:38:33.768Z,5.93
2018-03-24T09:39:33.765Z,5.95
2018-03-24T09:40:33.849Z,5.88
2018-03-24T09:41:33.830Z,5.78
2018-03-24T09:42:33.828Z,5.79
2018-03-24T09:43:33.806Z,5.88
2018-03-24T09:44:33.820Z,5.92
2018-03-24T09:45:33.983Z,6.01
2018-03-24T09:46:33.801Z,5.94
2018-03-24T09:47:33.944Z,5.93
2018-03-24T09:48:33.798Z,5.87
2018-03-24T09:49:33.814Z,5.96
2018-03-24T09:50:33.868Z,5.95
2018-03-24T09:51:33.837Z,5.91
2018-03-24T09:52:33.855Z,5.87
2018-03-24T09:53:33.852Z,5.76
2018-03-24T09:54:33.891Z,5.74
2018-03-24T09:55:33.881Z,5.76
2018-03-24T09:56:33.967Z,5.69
2018-03-24T09:57:33.850Z,5.74
2018-03-24T09:58:33.840Z,5.86
2018-03-24T09:59:33.850Z,5.78
2018-03-24T10:00:33.855Z,5.76
2018-03-24T10:01:33.867Z,5.87
2018-03-24T10:02:33.873Z,5.67
2018-03-24T10:03:33.866Z,5.63
2018-03-24T10:04:33.878Z,5.48
2018-03-24T10:05:33.905Z,5.48
2018-03-24T10:06:33.891Z,5.68
2018-03-24T10:07:33.900Z,5.66
2018-03-24T10:08:33.922Z,5.55
2018-03-24T10:09:33.890Z,5.62
2018-03-24T10:10:33.882Z,5.55
2018-03-24T10:11:33.902Z,5.51
2018-03-24T10:12:34.000Z,5.53
2018-03-24T10:13:33.910Z,5.55
2018-03-24T10:14:33.888Z,5.56
2018-03-24T10:15:33.878Z,5.51
2018-03-24T10:16:33.914Z,5.58
2018-03-24T10:17:33.947Z,5.43
2018-03-24T10:18:33.884Z,5.65
2018-03-24T10:19:33.899Z,5.46
2018-03-24T10:20:33.899Z,5.48
2018-03-24T10:21:33.890Z,5.33
2018-03-24T10:22:33.939Z,5.45
2018-03-24T10:23:33.901Z,5.4
2018-03-24T10:24:33.931Z,5.45
2018-03-24T10:25:33.895Z,5.38
2018-03-24T10:26:33.909Z,5.34
2018-03-24T10:27:33.996Z,5.24
2018-03-24T10:28:33.905Z,5.42
2018-03-24T10:29:33.924Z,5.31
2018-03-24T10:30:33.949Z,5.35
2018-03-24T10:31:33.921Z,5.35
2018-03-24T10:32:33.974Z,5.16
2018-03-24T10:33:33.937Z,5.29
2018-03-24T10:34:33.973Z,5.4
2018-03-24T10:35:33.968Z,5.51
2018-03-24T10:36:33.979Z,5.49
2018-03-24T10:37:33.988Z,5.63
2018-03-24T10:38:33.969Z,5.57
2018-03-24T10:39:33.960Z,5.36
2018-03-24T10:40:33.975Z,5.45
2018-03-24T10:41:33.987Z,5.56
2018-03-24T10:42:34.266Z,5.4
2018-03-24T10:43:33.996Z,5.42
2018-03-24T10:44:34.009Z,5.35
2018-03-24T10:45:33.978Z,5.36
2018-03-24T10:46:34.005Z,5.39
2018-03-24T10:47:34.025Z,5.43
2018-03-24T10:48:34.055Z,5.22
2018-03-24T10:49:34.011Z,5.39
2018-03-24T10:50:34.021Z,5.37
2018-03-24T10:51:34.041Z,5.42
2018-03-24T10:52:34.036Z,5.46
2018-03-24T10:53:34.101Z,5.51
2018-03-24T10:54:34.019Z,5.37
2018-03-24T10:55:34.048Z,5.52
2018-03-24T10:56:34.028Z,5.37
2018-03-24T10:57:34.036Z,5.41
2018-03-24T10:58:34.091Z,5.39
2018-03-24T10:59:34.066Z,5.42
2018-03-24T11:00:34.102Z,5.47
2018-03-24T11:01:34.050Z,5.43
2018-03-24T11:02:34.074Z,5.43
2018-03-24T11:03:34.215Z,5.49
2018-03-24T11:04:34.068Z,5.5
2018-03-24T11:05:34.057Z,5.43
2018-03-24T11:06:34.052Z,5.56
2018-03-24T11:07:34.057Z,5.6
2018-03-24T11:08:34.099Z,5.53
2018-03-24T11:09:34.084Z,5.54
2018-03-24T11:10:34.062Z,5.59
2018-03-24T11:11:34.052Z,5.52
2018-03-24T11:12:34.077Z,5.56
2018-03-24T11:13:34.088Z,5.57
2018-03-24T11:14:34.091Z,5.56
2018-03-24T11:15:34.079Z,5.47
2018-03-24T11:16:34.128Z,5.47
2018-03-24T11:17:34.125Z,5.51
2018-03-24T11:18:34.079Z,5.44
2018-03-24T11:19:34.373Z,5.51
2018-03-24T11:20:34.093Z,5.52
2018-03-24T11:21:34.092Z,5.48
2018-03-24T11:22:34.095Z,5.37
2018-03-24T11:23:34.091Z,5.38
2018-03-24T11:24:34.161Z,5.43
2018-03-24T11:25:34.135Z,5.56
2018-03-24T11:26:34.423Z,5.43
2018-03-24T11:27:34.164Z,5.48
2018-03-24T11:28:34.172Z,5.63
2018-03-24T11:29:34.180Z,5.5
2018-03-24T11:30:34.200Z,5.54
2018-03-24T11:31:34.131Z,5.52
2018-03-24T11:32:34.141Z,5.59
2018-03-24T11:33:34.175Z,5.59
2018-03-24T11:34:34.318Z,5.64
2018-03-24T11:35:34.144Z,5.5
2018-03-24T11:36:34.120Z,5.49
2018-03-24T11:37:34.148Z,5.24
2018-03-24T11:38:34.165Z,5.38
2018-03-24T11:39:34.172Z,5.35
2018-03-24T11:40:34.155Z,5.3
2018-03-24T11:41:34.281Z,5.42
2018-03-24T11:42:34.166Z,5.35
2018-03-24T11:43:34.154Z,5.43
2018-03-24T11:44:34.193Z,5.18
2018-03-24T11:45:34.349Z,5.17
2018-03-24T11:46:34.257Z,5.28
2018-03-24T11:47:34.587Z,5.16
2018-03-24T11:48:34.428Z,5.21
2018-03-24T11:49:34.193Z,5.04
2018-03-24T11:50:34.238Z,5.08
2018-03-24T11:51:34.220Z,5.08
2018-03-24T11:52:34.195Z,5.17
2018-03-24T11:53:35.221Z,5.04
2018-03-24T11:54:34.565Z,5.09
2018-03-24T11:55:34.243Z,5.17
2018-03-24T11:56:34.198Z,5.14
2018-03-24T11:57:34.442Z,4.93
2018-03-24T11:58:34.194Z,5.03
2018-03-24T11:59:34.247Z,4.87
2018-03-24T12:00:34.208Z,4.81
2018-03-24T12:01:34.216Z,4.82
2018-03-24T12:02:34.228Z,4.83
2018-03-24T12:03:34.277Z,4.8
2018-03-24T12:04:34.266Z,4.78
2018-03-24T12:05:34.631Z,4.89
2018-03-24T12:06:34.257Z,4.89
2018-03-24T12:07:34.451Z,4.78
2018-03-24T12:08:34.240Z,4.69
2018-03-24T12:09:34.277Z,4.82
2018-03-24T12:10:34.268Z,4.75
2018-03-24T12:11:34.259Z,4.8
2018-03-24T12:12:34.281Z,4.7
2018-03-24T12:13:34.409Z,4.65
2018-03-24T12:14:34.267Z,4.75
2018-03-24T12:15:34.260Z,4.73
2018-03-24T12:16:34.285Z,4.74
2018-03-24T12:17:34.287Z,4.75
2018-03-24T12:18:34.364Z,4.66
2018-03-24T12:19:34.312Z,4.69
2018-03-24T12:20:34.286Z,4.79
2018-03-24T12:21:34.387Z,4.78
2018-03-24T12:22:34.412Z,4.82
2018-03-24T12:23:34.313Z,4.87
2018-03-24T12:24:34.298Z,4.7
2018-03-24T12:25:34.425Z,4.64
2018-03-24T12:26:34.318Z,4.61
2018-03-24T12:27:34.301Z,4.69
2018-03-24T12:28:34.352Z,4.78
2018-03-24T12:29:34.376Z,4.72
2018-03-24T12:30:34.434Z,4.61
2018-03-24T12:31:34.358Z,4.63
2018-03-24T12:32:34.359Z,4.63
2018-03-24T12:33:34.377Z,4.7
2018-03-24T12:34:34.344Z,4.8
2018-03-24T12:35:34.397Z,4.87
2018-03-24T12:36:34.370Z,4.8
2018-03-24T12:37:34.435Z,4.76
2018-03-24T12:38:34.390Z,4.83
2018-03-24T12:39:34.350Z,4.71
2018-03-24T12:40:34.485Z,4.77
2018-03-24T12:41:34.421Z,4.66
2018-03-24T12:42:34.378Z,4.61
2018-03-24T12:43:34.418Z,4.72
2018-03-24T12:44:34.474Z,4.82
2018-03-24T12:45:34.394Z,4.76
2018-03-24T12:46:34.426Z,4.7
2018-03-24T12:47:34.373Z,4.75
2018-03-24T12:48:34.387Z,4.74
2018-03-24T12:49:34.393Z,4.65
2018-03-24T12:50:34.388Z,4.8
2018-03-24T12:51:34.501Z,4.71
2018-03-24T12:52:34.614Z,4.88
2018-03-24T12:53:34.445Z,5.05
2018-03-24T12:54:34.454Z,4.86
2018-03-24T12:55:34.470Z,4.92
2018-03-24T12:56:34.441Z,4.92
2018-03-24T12:57:34.457Z,4.98
2018-03-24T12:58:34.447Z,5
2018-03-24T12:59:34.454Z,4.86
2018-03-24T13:00:34.466Z,4.84
2018-03-24T13:01:34.457Z,4.73
2018-03-24T13:02:34.455Z,4.75
2018-03-24T13:03:34.448Z,4.69
2018-03-24T13:04:34.462Z,4.72
2018-03-24T13:05:34.480Z,4.72
2018-03-24T13:06:34.617Z,4.72
2018-03-24T13:07:34.455Z,4.83
2018-03-24T13:08:34.476Z,4.79
2018-03-24T13:09:34.479Z,4.88
2018-03-24T13:10:34.462Z,4.85
2018-03-24T13:11:34.468Z,4.78
2018-03-24T13:12:34.505Z,4.61
2018-03-24T13:13:34.515Z,4.82
2018-03-24T13:14:34.507Z,4.87
2018-03-24T13:15:34.495Z,4.73
2018-03-24T13:16:34.487Z,4.69
2018-03-24T13:17:34.499Z,4.65
2018-03-24T13:18:34.486Z,4.69
2018-03-24T13:19:34.546Z,4.8
2018-03-24T13:20:34.530Z,4.71
2018-03-24T13:21:34.479Z,4.78